sensor_id;sensor_type;location;lat;lon;timestamp;pressure;altitude;pressure_sealevel;temperature;humidity
44140;BME280;29803;51.048;4.686;2022-08-02T00:01:25;101832.06;;;15.92;100.00
44140;BME280;29803;51.048;4.686;2022-08-02T00:03:55;101821.47;;;15.83;100.00
44140;BME280;29803;51.048;4.686;2022-08-02T00:06:26;101815.75;;;15.77;100.00
44140;BME280;29803;51.048;4.686;2022-08-02T00:08:56;101811.69;;;15.73;100.00
44140;BME280;29803;51.048;4.686;2022-08-02T00:11:27;101819.16;;;15.71;100.00
44140;BME280;29803;51.048;4.686;2022-08-02T00:13:57;101821.69;;;15.73;100.00
44140;BME280;29803;51.048;4.686;2022-08-02T00:16:28;101817.28;;;15.72;100.00
44140;BME280;29803;51.048;4.686;2022-08-02T00:18:58;101816.47;;;15.71;100.00
44140;BME280;29803;51.048;4.686;2022-08-02T00:21:29;101817.75;;;15.75;100.00
44140;BME280;29803;51.048;4.686;2022-08-02T00:24:00;101812.84;;;15.79;100.00
44140;BME280;29803;51.048;4.686;2022-08-02T00:26:30;101815.22;;;15.82;100.00
44140;BME280;29803;51.048;4.686;2022-08-02T00:29:01;101818.75;;;15.83;100.00
44140;BME280;29803;51.048;4.686;2022-08-02T00:31:31;101821.81;;;15.79;100.00
44140;BME280;29803;51.048;4.686;2022-08-02T00:34:02;101811.69;;;15.73;100.00
44140;BME280;29803;51.048;4.686;2022-08-02T00:36:33;101813.91;;;15.70;100.00
44140;BME280;29803;51.048;4.686;2022-08-02T00:39:03;101809.88;;;15.66;100.00
44140;BME280;29803;51.048;4.686;2022-08-02T00:41:44;101809.03;;;15.65;100.00
44140;BME280;29803;51.048;4.686;2022-08-02T00:44:16;101812.22;;;15.61;100.00
44140;BME280;29803;51.048;4.686;2022-08-02T00:46:47;101811.56;;;15.59;100.00
44140;BME280;29803;51.048;4.686;2022-08-02T00:49:17;101818.84;;;15.58;100.00
44140;BME280;29803;51.048;4.686;2022-08-02T00:51:48;101816.31;;;15.57;100.00
44140;BME280;29803;51.048;4.686;2022-08-02T00:54:18;101808.22;;;15.57;100.00
44140;BME280;29803;51.048;4.686;2022-08-02T00:56:49;101801.28;;;15.54;100.00
44140;BME280;29803;51.048;4.686;2022-08-02T00:59:19;101793.69;;;15.49;100.00
44140;BME280;29803;51.048;4.686;2022-08-02T01:01:50;101799.63;;;15.45;100.00
44140;BME280;29803;51.048;4.686;2022-08-02T01:04:21;101794.06;;;15.38;100.00
44140;BME280;29803;51.048;4.686;2022-08-02T01:07:06;101796.13;;;15.36;100.00
44140;BME280;29803;51.048;4.686;2022-08-02T01:09:37;101795.63;;;15.33;100.00
44140;BME280;29803;51.048;4.686;2022-08-02T01:12:07;101796.47;;;15.33;100.00
44140;BME280;29803;51.048;4.686;2022-08-02T01:14:41;101796.97;;;15.37;100.00
44140;BME280;29803;51.048;4.686;2022-08-02T01:26:02;101797.09;;;15.43;100.00
44140;BME280;29803;51.048;4.686;2022-08-02T01:28:49;101802.19;;;15.38;100.00
44140;BME280;29803;51.048;4.686;2022-08-02T01:31:40;101793.22;;;15.38;100.00
44140;BME280;29803;51.048;4.686;2022-08-02T01:37:20;101794.91;;;15.39;100.00
44140;BME280;29803;51.048;4.686;2022-08-02T01:39:56;101790.16;;;15.41;100.00
44140;BME280;29803;51.048;4.686;2022-08-02T01:42:28;101777.00;;;15.38;100.00
44140;BME280;29803;51.048;4.686;2022-08-02T01:45:01;101769.59;;;15.32;100.00
44140;BME280;29803;51.048;4.686;2022-08-02T01:47:34;101761.69;;;15.22;100.00
44140;BME280;29803;51.048;4.686;2022-08-02T01:50:13;101767.97;;;15.14;100.00
44140;BME280;29803;51.048;4.686;2022-08-02T01:52:48;101783.84;;;15.17;100.00
44140;BME280;29803;51.048;4.686;2022-08-02T01:55:24;101786.88;;;15.22;100.00
44140;BME280;29803;51.048;4.686;2022-08-02T01:57:58;101794.63;;;15.25;100.00
44140;BME280;29803;51.048;4.686;2022-08-02T02:00:34;101794.28;;;15.28;100.00
44140;BME280;29803;51.048;4.686;2022-08-02T02:03:11;101792.22;;;15.31;100.00
44140;BME280;29803;51.048;4.686;2022-08-02T02:05:43;101785.13;;;15.29;100.00
44140;BME280;29803;51.048;4.686;2022-08-02T02:08:15;101776.06;;;15.22;100.00
44140;BME280;29803;51.048;4.686;2022-08-02T02:10:49;101770.66;;;15.14;100.00
44140;BME280;29803;51.048;4.686;2022-08-02T02:13:21;101764.44;;;15.06;100.00
44140;BME280;29803;51.048;4.686;2022-08-02T02:15:55;101757.03;;;14.99;100.00
44140;BME280;29803;51.048;4.686;2022-08-02T02:18:28;101759.41;;;14.94;100.00
44140;BME280;29803;51.048;4.686;2022-08-02T02:20:59;101749.47;;;14.87;100.00
44140;BME280;29803;51.048;4.686;2022-08-02T02:23:29;101736.63;;;14.81;100.00
44140;BME280;29803;51.048;4.686;2022-08-02T02:26:02;101730.25;;;14.73;100.00
44140;BME280;29803;51.048;4.686;2022-08-02T02:28:34;101721.31;;;14.65;100.00
44140;BME280;29803;51.048;4.686;2022-08-02T02:31:09;101727.59;;;14.57;100.00
44140;BME280;29803;51.048;4.686;2022-08-02T02:33:56;101728.94;;;14.53;100.00
44140;BME280;29803;51.048;4.686;2022-08-02T02:36:28;101732.47;;;14.54;100.00
44140;BME280;29803;51.048;4.686;2022-08-02T02:39:02;101722.50;;;14.54;100.00
44140;BME280;29803;51.048;4.686;2022-08-02T02:41:33;101736.84;;;14.55;100.00
44140;BME280;29803;51.048;4.686;2022-08-02T02:44:06;101738.72;;;14.54;100.00
44140;BME280;29803;51.048;4.686;2022-08-02T02:46:39;101739.88;;;14.60;100.00
44140;BME280;29803;51.048;4.686;2022-08-02T02:49:10;101740.56;;;14.62;100.00
44140;BME280;29803;51.048;4.686;2022-08-02T02:51:41;101729.09;;;14.60;100.00
44140;BME280;29803;51.048;4.686;2022-08-02T02:54:14;101735.84;;;14.56;100.00
44140;BME280;29803;51.048;4.686;2022-08-02T02:56:44;101739.41;;;14.48;100.00
44140;BME280;29803;51.048;4.686;2022-08-02T02:59:16;101739.22;;;14.41;100.00
44140;BME280;29803;51.048;4.686;2022-08-02T03:01:48;101737.69;;;14.39;100.00
44140;BME280;29803;51.048;4.686;2022-08-02T03:04:19;101741.22;;;14.39;100.00
44140;BME280;29803;51.048;4.686;2022-08-02T03:06:50;101742.25;;;14.38;100.00
44140;BME280;29803;51.048;4.686;2022-08-02T03:09:20;101748.47;;;14.39;100.00
44140;BME280;29803;51.048;4.686;2022-08-02T03:11:52;101745.78;;;14.39;100.00
44140;BME280;29803;51.048;4.686;2022-08-02T03:14:23;101749.81;;;14.35;100.00
44140;BME280;29803;51.048;4.686;2022-08-02T03:16:54;101746.66;;;14.31;100.00
44140;BME280;29803;51.048;4.686;2022-08-02T03:19:25;101751.16;;;14.31;100.00
44140;BME280;29803;51.048;4.686;2022-08-02T03:21:56;101743.44;;;14.28;100.00
44140;BME280;29803;51.048;4.686;2022-08-02T03:24:27;101754.56;;;14.24;100.00
44140;BME280;29803;51.048;4.686;2022-08-02T03:26:57;101742.25;;;14.22;100.00
44140;BME280;29803;51.048;4.686;2022-08-02T03:29:28;101737.53;;;14.16;100.00
44140;BME280;29803;51.048;4.686;2022-08-02T03:31:58;101733.81;;;14.09;100.00
44140;BME280;29803;51.048;4.686;2022-08-02T03:34:29;101738.69;;;14.05;100.00
44140;BME280;29803;51.048;4.686;2022-08-02T03:37:01;101737.00;;;14.04;100.00
44140;BME280;29803;51.048;4.686;2022-08-02T03:39:32;101743.41;;;14.03;100.00
44140;BME280;29803;51.048;4.686;2022-08-02T03:42:03;101738.34;;;14.00;100.00
44140;BME280;29803;51.048;4.686;2022-08-02T03:44:34;101746.44;;;14.00;100.00
44140;BME280;29803;51.048;4.686;2022-08-02T03:47:09;101744.56;;;14.00;100.00
44140;BME280;29803;51.048;4.686;2022-08-02T03:49:41;101749.97;;;14.00;100.00
44140;BME280;29803;51.048;4.686;2022-08-02T03:52:13;101742.06;;;13.99;100.00
44140;BME280;29803;51.048;4.686;2022-08-02T03:54:44;101743.06;;;13.98;100.00
44140;BME280;29803;51.048;4.686;2022-08-02T03:57:15;101741.22;;;13.98;100.00
44140;BME280;29803;51.048;4.686;2022-08-02T03:59:46;101730.59;;;13.97;100.00
44140;BME280;29803;51.048;4.686;2022-08-02T04:02:16;101724.69;;;13.93;100.00
44140;BME280;29803;51.048;4.686;2022-08-02T04:04:47;101720.81;;;13.88;100.00
44140;BME280;29803;51.048;4.686;2022-08-02T04:07:17;101717.09;;;13.81;100.00
44140;BME280;29803;51.048;4.686;2022-08-02T04:09:48;101723.66;;;13.78;100.00
44140;BME280;29803;51.048;4.686;2022-08-02T04:12:18;101719.09;;;13.79;100.00
44140;BME280;29803;51.048;4.686;2022-08-02T04:14:49;101721.81;;;13.79;100.00
44140;BME280;29803;51.048;4.686;2022-08-02T04:17:22;101718.25;;;13.78;100.00
44140;BME280;29803;51.048;4.686;2022-08-02T04:19:54;101719.09;;;13.79;100.00
44140;BME280;29803;51.048;4.686;2022-08-02T04:22:30;101716.22;;;13.80;100.00
44140;BME280;29803;51.048;4.686;2022-08-02T04:25:06;101729.41;;;13.83;100.00
44140;BME280;29803;51.048;4.686;2022-08-02T04:27:39;101727.22;;;13.87;100.00
44140;BME280;29803;51.048;4.686;2022-08-02T04:30:10;101735.66;;;13.92;100.00
44140;BME280;29803;51.048;4.686;2022-08-02T04:32:42;101726.22;;;13.96;100.00
44140;BME280;29803;51.048;4.686;2022-08-02T04:35:14;101718.97;;;13.96;100.00
44140;BME280;29803;51.048;4.686;2022-08-02T04:37:44;101726.03;;;13.97;100.00
44140;BME280;29803;51.048;4.686;2022-08-02T04:40:15;101733.78;;;14.00;100.00
44140;BME280;29803;51.048;4.686;2022-08-02T04:42:45;101728.25;;;14.02;100.00
44140;BME280;29803;51.048;4.686;2022-08-02T04:45:16;101736.84;;;14.06;100.00
44140;BME280;29803;51.048;4.686;2022-08-02T04:47:47;101732.78;;;14.10;100.00
44140;BME280;29803;51.048;4.686;2022-08-02T04:50:17;101745.78;;;14.14;100.00
44140;BME280;29803;51.048;4.686;2022-08-02T04:52:50;101732.63;;;14.19;100.00
44140;BME280;29803;51.048;4.686;2022-08-02T04:55:20;101740.03;;;14.25;100.00
44140;BME280;29803;51.048;4.686;2022-08-02T04:57:52;101751.53;;;14.36;100.00
44140;BME280;29803;51.048;4.686;2022-08-02T05:00:38;101745.31;;;14.52;100.00
44140;BME280;29803;51.048;4.686;2022-08-02T05:03:08;101740.22;;;14.65;100.00
44140;BME280;29803;51.048;4.686;2022-08-02T05:05:39;101740.03;;;14.74;100.00
44140;BME280;29803;51.048;4.686;2022-08-02T05:08:09;101745.06;;;14.86;100.00
44140;BME280;29803;51.048;4.686;2022-08-02T05:10:40;101747.56;;;14.95;100.00
44140;BME280;29803;51.048;4.686;2022-08-02T05:13:10;101744.22;;;15.01;100.00
44140;BME280;29803;51.048;4.686;2022-08-02T05:15:41;101748.91;;;15.08;100.00
44140;BME280;29803;51.048;4.686;2022-08-02T05:18:11;101744.97;;;15.18;100.00
44140;BME280;29803;51.048;4.686;2022-08-02T05:20:42;101746.28;;;15.31;100.00
44140;BME280;29803;51.048;4.686;2022-08-02T05:23:12;101747.59;;;15.43;100.00
44140;BME280;29803;51.048;4.686;2022-08-02T05:25:43;101748.72;;;15.57;100.00
44140;BME280;29803;51.048;4.686;2022-08-02T05:28:13;101754.25;;;15.71;100.00
44140;BME280;29803;51.048;4.686;2022-08-02T05:30:44;101757.88;;;15.87;100.00
44140;BME280;29803;51.048;4.686;2022-08-02T05:33:14;101755.38;;;16.00;100.00
44140;BME280;29803;51.048;4.686;2022-08-02T05:35:45;101762.72;;;16.14;100.00
44140;BME280;29803;51.048;4.686;2022-08-02T05:38:15;101771.41;;;16.33;100.00
44140;BME280;29803;51.048;4.686;2022-08-02T05:40:46;101766.03;;;16.47;100.00
44140;BME280;29803;51.048;4.686;2022-08-02T05:43:16;101768.09;;;16.60;100.00
44140;BME280;29803;51.048;4.686;2022-08-02T05:45:47;101766.69;;;16.72;100.00
44140;BME280;29803;51.048;4.686;2022-08-02T05:48:18;101762.69;;;16.83;100.00
44140;BME280;29803;51.048;4.686;2022-08-02T05:50:53;101764.09;;;16.94;100.00
44140;BME280;29803;51.048;4.686;2022-08-02T05:53:43;101772.69;;;17.12;100.00
44140;BME280;29803;51.048;4.686;2022-08-02T05:56:23;101766.03;;;17.29;100.00
44140;BME280;29803;51.048;4.686;2022-08-02T05:59:01;101763.13;;;17.46;100.00
44140;BME280;29803;51.048;4.686;2022-08-02T06:01:34;101764.66;;;17.70;100.00
44140;BME280;29803;51.048;4.686;2022-08-02T06:04:10;101766.28;;;18.22;100.00
44140;BME280;29803;51.048;4.686;2022-08-02T06:06:43;101766.22;;;19.14;100.00
44140;BME280;29803;51.048;4.686;2022-08-02T06:09:16;101768.06;;;20.09;100.00
44140;BME280;29803;51.048;4.686;2022-08-02T06:11:49;101770.38;;;20.92;100.00
44140;BME280;29803;51.048;4.686;2022-08-02T06:14:21;101762.13;;;21.25;100.00
44140;BME280;29803;51.048;4.686;2022-08-02T06:16:52;101762.28;;;21.88;100.00
44140;BME280;29803;51.048;4.686;2022-08-02T06:19:24;101767.44;;;22.41;100.00
44140;BME280;29803;51.048;4.686;2022-08-02T06:21:55;101766.59;;;23.09;100.00
44140;BME280;29803;51.048;4.686;2022-08-02T06:24:25;101765.56;;;23.10;100.00
44140;BME280;29803;51.048;4.686;2022-08-02T06:26:56;101761.69;;;22.99;100.00
44140;BME280;29803;51.048;4.686;2022-08-02T06:29:30;101763.34;;;23.00;100.00
44140;BME280;29803;51.048;4.686;2022-08-02T06:32:01;101756.34;;;23.41;100.00
44140;BME280;29803;51.048;4.686;2022-08-02T06:34:51;101757.66;;;23.87;100.00
44140;BME280;29803;51.048;4.686;2022-08-02T06:37:26;101754.09;;;23.87;100.00
44140;BME280;29803;51.048;4.686;2022-08-02T06:40:05;101745.63;;;23.88;100.00
44140;BME280;29803;51.048;4.686;2022-08-02T06:42:57;101751.25;;;24.35;100.00
44140;BME280;29803;51.048;4.686;2022-08-02T06:45:35;101756.06;;;24.51;100.00
44140;BME280;29803;51.048;4.686;2022-08-02T06:48:06;101748.78;;;24.45;100.00
44140;BME280;29803;51.048;4.686;2022-08-02T06:50:37;101757.28;;;24.56;100.00
44140;BME280;29803;51.048;4.686;2022-08-02T06:53:09;101765.50;;;23.84;100.00
44140;BME280;29803;51.048;4.686;2022-08-02T06:55:40;101765.84;;;24.47;100.00
44140;BME280;29803;51.048;4.686;2022-08-02T06:58:12;101762.75;;;24.56;100.00
44140;BME280;29803;51.048;4.686;2022-08-02T07:00:42;101765.38;;;24.97;100.00
44140;BME280;29803;51.048;4.686;2022-08-02T07:03:13;101761.06;;;24.78;100.00
44140;BME280;29803;51.048;4.686;2022-08-02T07:05:44;101760.38;;;24.71;100.00
44140;BME280;29803;51.048;4.686;2022-08-02T07:08:18;101759.19;;;24.90;100.00
44140;BME280;29803;51.048;4.686;2022-08-02T07:10:49;101766.09;;;24.81;100.00
44140;BME280;29803;51.048;4.686;2022-08-02T07:13:19;101764.66;;;24.78;100.00
44140;BME280;29803;51.048;4.686;2022-08-02T07:15:50;101759.63;;;25.22;100.00
44140;BME280;29803;51.048;4.686;2022-08-02T07:18:21;101758.19;;;25.31;100.00
44140;BME280;29803;51.048;4.686;2022-08-02T07:20:53;101770.31;;;25.47;100.00
44140;BME280;29803;51.048;4.686;2022-08-02T07:23:23;101757.34;;;25.71;98.46
44140;BME280;29803;51.048;4.686;2022-08-02T07:25:54;101757.00;;;25.27;100.00
44140;BME280;29803;51.048;4.686;2022-08-02T07:28:24;101761.66;;;25.27;100.00
44140;BME280;29803;51.048;4.686;2022-08-02T07:30:55;101749.91;;;25.43;100.00
44140;BME280;29803;51.048;4.686;2022-08-02T07:33:25;101760.03;;;25.54;100.00
44140;BME280;29803;51.048;4.686;2022-08-02T07:35:56;101757.25;;;25.66;98.78
44140;BME280;29803;51.048;4.686;2022-08-02T07:38:28;101752.56;;;25.78;90.39
44140;BME280;29803;51.048;4.686;2022-08-02T07:40:58;101763.22;;;25.23;89.49
44140;BME280;29803;51.048;4.686;2022-08-02T07:43:28;101759.31;;;25.07;87.92
44140;BME280;29803;51.048;4.686;2022-08-02T07:45:59;101748.19;;;25.54;87.50
44140;BME280;29803;51.048;4.686;2022-08-02T07:48:29;101761.50;;;25.34;85.05
44140;BME280;29803;51.048;4.686;2022-08-02T07:51:00;101751.44;;;25.51;89.36
44140;BME280;29803;51.048;4.686;2022-08-02T07:53:30;101751.66;;;25.90;81.02
44140;BME280;29803;51.048;4.686;2022-08-02T07:56:01;101757.66;;;25.87;78.22
44140;BME280;29803;51.048;4.686;2022-08-02T07:58:31;101763.41;;;25.73;76.36
44140;BME280;29803;51.048;4.686;2022-08-02T08:01:02;101757.38;;;26.17;74.94
44140;BME280;29803;51.048;4.686;2022-08-02T08:03:32;101755.84;;;26.54;75.53
44140;BME280;29803;51.048;4.686;2022-08-02T08:06:03;101747.56;;;27.27;70.71
44140;BME280;29803;51.048;4.686;2022-08-02T08:08:34;101750.19;;;27.17;73.12
44140;BME280;29803;51.048;4.686;2022-08-02T08:11:04;101747.41;;;27.39;71.40
44140;BME280;29803;51.048;4.686;2022-08-02T08:13:35;101748.47;;;27.59;72.65
44140;BME280;29803;51.048;4.686;2022-08-02T08:16:06;101752.69;;;27.89;70.65
44140;BME280;29803;51.048;4.686;2022-08-02T08:18:36;101753.16;;;28.08;69.83
44140;BME280;29803;51.048;4.686;2022-08-02T08:21:07;101762.16;;;27.98;69.46
44140;BME280;29803;51.048;4.686;2022-08-02T08:23:37;101753.47;;;28.11;68.30
44140;BME280;29803;51.048;4.686;2022-08-02T08:26:08;101745.25;;;27.90;69.84
44140;BME280;29803;51.048;4.686;2022-08-02T08:28:38;101742.00;;;27.71;68.61
44140;BME280;29803;51.048;4.686;2022-08-02T08:31:09;101746.69;;;27.92;68.19
44140;BME280;29803;51.048;4.686;2022-08-02T08:33:39;101746.88;;;28.12;66.37
44140;BME280;29803;51.048;4.686;2022-08-02T08:36:10;101742.69;;;28.10;67.96
44140;BME280;29803;51.048;4.686;2022-08-02T08:38:40;101742.59;;;28.00;66.51
44140;BME280;29803;51.048;4.686;2022-08-02T08:41:11;101749.94;;;28.21;65.76
44140;BME280;29803;51.048;4.686;2022-08-02T08:43:41;101754.34;;;27.90;67.33
44140;BME280;29803;51.048;4.686;2022-08-02T08:46:26;101747.75;;;27.91;67.33
44140;BME280;29803;51.048;4.686;2022-08-02T08:49:00;101747.78;;;28.55;67.31
44140;BME280;29803;51.048;4.686;2022-08-02T08:51:36;101755.94;;;28.72;66.17
44140;BME280;29803;51.048;4.686;2022-08-02T08:54:09;101746.00;;;28.39;66.01
44140;BME280;29803;51.048;4.686;2022-08-02T08:56:41;101755.13;;;28.77;65.77
44140;BME280;29803;51.048;4.686;2022-08-02T08:59:12;101748.34;;;27.93;66.35
44140;BME280;29803;51.048;4.686;2022-08-02T09:01:44;101739.66;;;28.06;67.01
44140;BME280;29803;51.048;4.686;2022-08-02T09:04:15;101747.50;;;28.25;69.22
44140;BME280;29803;51.048;4.686;2022-08-02T09:06:46;101731.00;;;27.98;66.70
44140;BME280;29803;51.048;4.686;2022-08-02T09:09:16;101741.13;;;27.43;70.95
44140;BME280;29803;51.048;4.686;2022-08-02T09:11:48;101737.25;;;27.66;69.78
44140;BME280;29803;51.048;4.686;2022-08-02T09:14:37;101739.31;;;27.76;70.53
44140;BME280;29803;51.048;4.686;2022-08-02T09:17:09;101738.84;;;27.84;68.24
44140;BME280;29803;51.048;4.686;2022-08-02T09:19:41;101734.78;;;27.21;72.49
44140;BME280;29803;51.048;4.686;2022-08-02T09:22:12;101729.16;;;26.72;76.00
44140;BME280;29803;51.048;4.686;2022-08-02T09:24:46;101727.34;;;26.44;76.57
44140;BME280;29803;51.048;4.686;2022-08-02T09:27:19;101719.19;;;26.20;80.28
44140;BME280;29803;51.048;4.686;2022-08-02T09:29:52;101729.47;;;26.08;81.01
44140;BME280;29803;51.048;4.686;2022-08-02T09:32:23;101722.88;;;26.59;79.82
44140;BME280;29803;51.048;4.686;2022-08-02T09:34:53;101727.00;;;27.13;78.50
44140;BME280;29803;51.048;4.686;2022-08-02T09:37:43;101735.94;;;27.25;74.49
44140;BME280;29803;51.048;4.686;2022-08-02T09:40:13;101733.59;;;27.60;73.74
44140;BME280;29803;51.048;4.686;2022-08-02T09:42:57;101734.75;;;27.65;75.01
44140;BME280;29803;51.048;4.686;2022-08-02T09:45:46;101728.63;;;27.57;75.56
44140;BME280;29803;51.048;4.686;2022-08-02T09:48:17;101732.06;;;27.70;72.73
44140;BME280;29803;51.048;4.686;2022-08-02T09:50:47;101732.94;;;28.29;72.83
44140;BME280;29803;51.048;4.686;2022-08-02T09:53:18;101731.97;;;28.46;70.41
44140;BME280;29803;51.048;4.686;2022-08-02T09:56:08;101748.44;;;28.68;67.96
44140;BME280;29803;51.048;4.686;2022-08-02T09:58:39;101742.59;;;28.64;67.68
44140;BME280;29803;51.048;4.686;2022-08-02T10:01:10;101737.31;;;28.57;69.74
44140;BME280;29803;51.048;4.686;2022-08-02T10:03:53;101739.38;;;28.40;68.64
44140;BME280;29803;51.048;4.686;2022-08-02T10:06:25;101738.72;;;28.60;69.99
44140;BME280;29803;51.048;4.686;2022-08-02T10:08:56;101737.50;;;28.13;69.84
44140;BME280;29803;51.048;4.686;2022-08-02T10:11:27;101728.50;;;27.96;70.33
44140;BME280;29803;51.048;4.686;2022-08-02T10:13:58;101726.78;;;28.17;68.49
44140;BME280;29803;51.048;4.686;2022-08-02T10:16:32;101726.69;;;28.07;69.54
44140;BME280;29803;51.048;4.686;2022-08-02T10:19:03;101727.22;;;28.36;68.48
44140;BME280;29803;51.048;4.686;2022-08-02T10:21:55;101728.34;;;28.40;68.63
44140;BME280;29803;51.048;4.686;2022-08-02T10:24:28;101723.69;;;28.46;69.82
44140;BME280;29803;51.048;4.686;2022-08-02T10:27:00;101715.84;;;28.00;67.16
44140;BME280;29803;51.048;4.686;2022-08-02T10:29:35;101733.25;;;28.33;64.95
44140;BME280;29803;51.048;4.686;2022-08-02T10:32:26;101724.38;;;28.63;65.35
44140;BME280;29803;51.048;4.686;2022-08-02T10:35:03;101725.50;;;29.09;64.41
44140;BME280;29803;51.048;4.686;2022-08-02T10:37:35;101723.84;;;29.08;62.75
44140;BME280;29803;51.048;4.686;2022-08-02T10:40:09;101728.75;;;28.96;57.84
44140;BME280;29803;51.048;4.686;2022-08-02T10:42:53;101713.56;;;28.24;60.47
44140;BME280;29803;51.048;4.686;2022-08-02T10:45:24;101714.88;;;28.11;62.84
44140;BME280;29803;51.048;4.686;2022-08-02T10:53:29;101709.31;;;28.06;59.00
44140;BME280;29803;51.048;4.686;2022-08-02T10:56:03;101707.38;;;28.39;61.57
44140;BME280;29803;51.048;4.686;2022-08-02T10:58:33;101704.09;;;28.42;60.45
44140;BME280;29803;51.048;4.686;2022-08-02T11:01:28;101706.22;;;28.03;61.79
44140;BME280;29803;51.048;4.686;2022-08-02T11:03:59;101707.19;;;28.19;60.24
44140;BME280;29803;51.048;4.686;2022-08-02T11:06:30;101710.53;;;27.67;60.40
44140;BME280;29803;51.048;4.686;2022-08-02T11:12:11;101711.28;;;27.84;62.70
44140;BME280;29803;51.048;4.686;2022-08-02T11:14:45;101700.16;;;27.74;62.04
44140;BME280;29803;51.048;4.686;2022-08-02T11:17:17;101699.31;;;28.00;63.63
44140;BME280;29803;51.048;4.686;2022-08-02T11:20:17;101698.16;;;27.96;63.70
44140;BME280;29803;51.048;4.686;2022-08-02T11:22:50;101691.88;;;27.74;62.62
44140;BME280;29803;51.048;4.686;2022-08-02T11:27:54;101689.38;;;27.99;63.38
44140;BME280;29803;51.048;4.686;2022-08-02T11:30:26;101685.41;;;27.90;60.18
44140;BME280;29803;51.048;4.686;2022-08-02T11:32:58;101685.91;;;28.14;59.53
44140;BME280;29803;51.048;4.686;2022-08-02T11:35:45;101689.19;;;28.43;59.22
44140;BME280;29803;51.048;4.686;2022-08-02T11:38:18;101693.50;;;28.71;59.84
44140;BME280;29803;51.048;4.686;2022-08-02T11:40:50;101682.59;;;28.49;59.10
44140;BME280;29803;51.048;4.686;2022-08-02T11:43:23;101691.75;;;28.55;57.47
44140;BME280;29803;51.048;4.686;2022-08-02T11:45:53;101689.09;;;28.75;57.86
44140;BME280;29803;51.048;4.686;2022-08-02T11:48:43;101689.06;;;28.70;55.75
44140;BME280;29803;51.048;4.686;2022-08-02T11:51:16;101684.03;;;28.99;58.62
44140;BME280;29803;51.048;4.686;2022-08-02T11:53:49;101674.47;;;29.32;56.92
44140;BME280;29803;51.048;4.686;2022-08-02T11:56:37;101683.84;;;29.26;55.80
44140;BME280;29803;51.048;4.686;2022-08-02T11:59:09;101681.00;;;29.06;54.84
44140;BME280;29803;51.048;4.686;2022-08-02T12:01:40;101682.84;;;28.90;56.37
44140;BME280;29803;51.048;4.686;2022-08-02T12:04:11;101689.78;;;28.93;57.84
44140;BME280;29803;51.048;4.686;2022-08-02T12:06:42;101689.03;;;29.02;56.98
44140;BME280;29803;51.048;4.686;2022-08-02T12:09:13;101674.28;;;28.91;57.95
44140;BME280;29803;51.048;4.686;2022-08-02T12:11:47;101678.84;;;29.13;55.22
44140;BME280;29803;51.048;4.686;2022-08-02T12:14:18;101680.50;;;29.14;53.56
44140;BME280;29803;51.048;4.686;2022-08-02T12:16:49;101674.13;;;29.13;55.12
44140;BME280;29803;51.048;4.686;2022-08-02T12:19:39;101675.03;;;29.39;55.49
44140;BME280;29803;51.048;4.686;2022-08-02T12:25:15;101680.34;;;29.56;54.64
44140;BME280;29803;51.048;4.686;2022-08-02T12:27:46;101680.59;;;29.45;55.00
44140;BME280;29803;51.048;4.686;2022-08-02T12:30:17;101671.72;;;29.32;55.58
44140;BME280;29803;51.048;4.686;2022-08-02T12:32:48;101679.44;;;29.35;55.63
44140;BME280;29803;51.048;4.686;2022-08-02T12:35:19;101673.13;;;29.50;56.27
44140;BME280;29803;51.048;4.686;2022-08-02T12:37:49;101674.28;;;29.59;56.55
44140;BME280;29803;51.048;4.686;2022-08-02T12:40:23;101671.28;;;29.91;55.79
44140;BME280;29803;51.048;4.686;2022-08-02T12:42:56;101669.63;;;29.85;56.97
44140;BME280;29803;51.048;4.686;2022-08-02T12:45:30;101666.00;;;29.80;55.87
44140;BME280;29803;51.048;4.686;2022-08-02T12:48:01;101659.38;;;29.71;56.42
44140;BME280;29803;51.048;4.686;2022-08-02T12:50:33;101658.00;;;29.68;56.82
44140;BME280;29803;51.048;4.686;2022-08-02T12:53:30;101655.47;;;29.56;57.04
44140;BME280;29803;51.048;4.686;2022-08-02T12:56:00;101664.81;;;29.35;57.63
44140;BME280;29803;51.048;4.686;2022-08-02T12:58:47;101664.88;;;29.60;57.61
44140;BME280;29803;51.048;4.686;2022-08-02T13:01:36;101665.91;;;29.34;57.79
44140;BME280;29803;51.048;4.686;2022-08-02T13:04:07;101655.75;;;29.60;57.38
44140;BME280;29803;51.048;4.686;2022-08-02T13:06:38;101654.41;;;29.62;57.43
44140;BME280;29803;51.048;4.686;2022-08-02T13:09:27;101650.41;;;29.23;59.13
44140;BME280;29803;51.048;4.686;2022-08-02T13:11:58;101650.97;;;29.30;59.69
44140;BME280;29803;51.048;4.686;2022-08-02T13:14:28;101636.41;;;29.55;58.14
44140;BME280;29803;51.048;4.686;2022-08-02T13:16:59;101649.66;;;29.48;59.08
44140;BME280;29803;51.048;4.686;2022-08-02T13:19:30;101656.25;;;29.52;58.49
44140;BME280;29803;51.048;4.686;2022-08-02T13:22:00;101636.13;;;29.56;59.33
44140;BME280;29803;51.048;4.686;2022-08-02T13:24:31;101641.06;;;29.44;59.32
44140;BME280;29803;51.048;4.686;2022-08-02T13:27:02;101635.31;;;29.76;59.56
44140;BME280;29803;51.048;4.686;2022-08-02T13:29:33;101637.81;;;29.78;59.57
44140;BME280;29803;51.048;4.686;2022-08-02T13:32:03;101627.78;;;29.41;60.45
44140;BME280;29803;51.048;4.686;2022-08-02T13:34:35;101625.06;;;29.72;59.20
44140;BME280;29803;51.048;4.686;2022-08-02T13:37:06;101625.34;;;29.90;58.30
44140;BME280;29803;51.048;4.686;2022-08-02T13:39:36;101624.81;;;29.93;60.25
44140;BME280;29803;51.048;4.686;2022-08-02T13:42:07;101621.47;;;29.66;59.13